sensor_id;sensor_type;location;lat;lon;timestamp;P1;durP1;ratioP1;P2;durP2;ratioP2
59828;SDS011;45708;51.848;107.620;2023-03-23T00:02:30;7.10;;;3.07;;
59828;SDS011;45708;51.848;107.620;2023-03-23T00:07:32;17.27;;;7.30;;
59828;SDS011;45708;51.848;107.620;2023-03-23T00:12:33;9.37;;;4.07;;
59828;SDS011;45708;51.848;107.620;2023-03-23T00:17:34;14.53;;;2.40;;
59828;SDS011;45708;51.848;107.620;2023-03-23T00:22:35;6.30;;;1.57;;
59828;SDS011;45708;51.848;107.620;2023-03-23T00:27:36;14.83;;;4.20;;
59828;SDS011;45708;51.848;107.620;2023-03-23T00:32:37;3.87;;;1.80;;
59828;SDS011;45708;51.848;107.620;2023-03-23T00:37:38;9.67;;;3.80;;
59828;SDS011;45708;51.848;107.620;2023-03-23T00:42:39;11.13;;;4.77;;
59828;SDS011;45708;51.848;107.620;2023-03-23T00:47:40;6.70;;;5.30;;
59828;SDS011;45708;51.848;107.620;2023-03-23T00:52:41;9.53;;;3.00;;
59828;SDS011;45708;51.848;107.620;2023-03-23T00:57:42;4.23;;;3.13;;
59828;SDS011;45708;51.848;107.620;2023-03-23T01:02:43;12.53;;;4.57;;
59828;SDS011;45708;51.848;107.620;2023-03-23T01:07:44;5.23;;;2.20;;
59828;SDS011;45708;51.848;107.620;2023-03-23T01:12:45;5.03;;;2.03;;
59828;SDS011;45708;51.848;107.620;2023-03-23T01:17:47;1.03;;;1.03;;
59828;SDS011;45708;51.848;107.620;2023-03-23T01:22:48;5.23;;;1.70;;
59828;SDS011;45708;51.848;107.620;2023-03-23T01:27:48;4.33;;;1.27;;
59828;SDS011;45708;51.848;107.620;2023-03-23T01:32:49;6.67;;;3.70;;
59828;SDS011;45708;51.848;107.620;2023-03-23T01:37:51;6.70;;;3.40;;
59828;SDS011;45708;51.848;107.620;2023-03-23T01:42:51;8.80;;;2.60;;
59828;SDS011;45708;51.848;107.620;2023-03-23T01:47:54;1.70;;;1.30;;
59828;SDS011;45708;51.848;107.620;2023-03-23T01:52:59;3.23;;;2.03;;
59828;SDS011;45708;51.848;107.620;2023-03-23T01:58:02;2.20;;;1.30;;
59828;SDS011;45708;51.848;107.620;2023-03-23T02:03:03;3.27;;;2.30;;
59828;SDS011;45708;51.848;107.620;2023-03-23T02:08:04;4.43;;;1.43;;
59828;SDS011;45708;51.848;107.620;2023-03-23T02:13:08;1.93;;;1.60;;
59828;SDS011;45708;51.848;107.620;2023-03-23T02:23:39;1.30;;;0.80;;
59828;SDS011;45708;51.848;107.620;2023-03-23T02:39:36;2.83;;;1.63;;
59828;SDS011;45708;51.848;107.620;2023-03-23T02:44:44;1.10;;;0.60;;
59828;SDS011;45708;51.848;107.620;2023-03-23T02:49:48;6.27;;;2.30;;
59828;SDS011;45708;51.848;107.620;2023-03-23T02:54:52;7.00;;;2.80;;
59828;SDS011;45708;51.848;107.620;2023-03-23T02:59:55;4.47;;;3.17;;
59828;SDS011;45708;51.848;107.620;2023-03-23T03:10:20;3.10;;;2.50;;
59828;SDS011;45708;51.848;107.620;2023-03-23T03:15:40;2.07;;;1.13;;
59828;SDS011;45708;51.848;107.620;2023-03-23T03:20:49;6.27;;;1.03;;
59828;SDS011;45708;51.848;107.620;2023-03-23T03:25:53;14.80;;;3.73;;
59828;SDS011;45708;51.848;107.620;2023-03-23T03:30:58;6.83;;;1.73;;
59828;SDS011;45708;51.848;107.620;2023-03-23T03:36:02;3.33;;;1.60;;
59828;SDS011;45708;51.848;107.620;2023-03-23T03:41:07;3.50;;;2.00;;
59828;SDS011;45708;51.848;107.620;2023-03-23T03:46:09;9.00;;;4.83;;
59828;SDS011;45708;51.848;107.620;2023-03-23T03:51:09;2.60;;;1.47;;
59828;SDS011;45708;51.848;107.620;2023-03-23T03:56:10;1.53;;;0.63;;
59828;SDS011;45708;51.848;107.620;2023-03-23T04:01:11;1.40;;;0.87;;
59828;SDS011;45708;51.848;107.620;2023-03-23T04:06:12;1.57;;;0.67;;
59828;SDS011;45708;51.848;107.620;2023-03-23T04:11:14;1.20;;;1.03;;
59828;SDS011;45708;51.848;107.620;2023-03-23T04:16:15;2.37;;;1.47;;
59828;SDS011;45708;51.848;107.620;2023-03-23T04:21:16;3.77;;;2.10;;
59828;SDS011;45708;51.848;107.620;2023-03-23T04:26:17;1.67;;;0.53;;
59828;SDS011;45708;51.848;107.620;2023-03-23T04:31:17;1.77;;;1.40;;
59828;SDS011;45708;51.848;107.620;2023-03-23T04:36:19;5.43;;;1.90;;
59828;SDS011;45708;51.848;107.620;2023-03-23T04:41:21;1.20;;;0.93;;
59828;SDS011;45708;51.848;107.620;2023-03-23T04:46:25;2.17;;;1.57;;
59828;SDS011;45708;51.848;107.620;2023-03-23T04:51:28;2.07;;;1.57;;
59828;SDS011;45708;51.848;107.620;2023-03-23T04:56:29;1.30;;;0.90;;
59828;SDS011;45708;51.848;107.620;2023-03-23T05:01:30;3.93;;;1.57;;
59828;SDS011;45708;51.848;107.620;2023-03-23T05:06:31;5.67;;;0.93;;
59828;SDS011;45708;51.848;107.620;2023-03-23T05:11:32;1.40;;;1.00;;
59828;SDS011;45708;51.848;107.620;2023-03-23T05:16:33;0.93;;;0.60;;
59828;SDS011;45708;51.848;107.620;2023-03-23T05:21:35;6.17;;;1.87;;
59828;SDS011;45708;51.848;107.620;2023-03-23T05:26:36;1.80;;;1.13;;
59828;SDS011;45708;51.848;107.620;2023-03-23T05:31:36;3.90;;;1.17;;
59828;SDS011;45708;51.848;107.620;2023-03-23T05:36:37;2.70;;;0.93;;
59828;SDS011;45708;51.848;107.620;2023-03-23T05:41:38;1.83;;;1.20;;
59828;SDS011;45708;51.848;107.620;2023-03-23T05:46:40;1.47;;;1.07;;
59828;SDS011;45708;51.848;107.620;2023-03-23T05:51:42;1.43;;;1.30;;
59828;SDS011;45708;51.848;107.620;2023-03-23T05:56:47;7.10;;;2.40;;
59828;SDS011;45708;51.848;107.620;2023-03-23T06:01:50;1.20;;;0.77;;
59828;SDS011;45708;51.848;107.620;2023-03-23T06:06:53;1.70;;;0.70;;
59828;SDS011;45708;51.848;107.620;2023-03-23T06:11:55;4.40;;;1.13;;
59828;SDS011;45708;51.848;107.620;2023-03-23T06:16:56;2.77;;;1.30;;
59828;SDS011;45708;51.848;107.620;2023-03-23T06:21:56;1.57;;;0.87;;
59828;SDS011;45708;51.848;107.620;2023-03-23T06:26:57;1.67;;;0.87;;
59828;SDS011;45708;51.848;107.620;2023-03-23T06:32:00;0.97;;;0.80;;
59828;SDS011;45708;51.848;107.620;2023-03-23T06:37:04;1.03;;;0.97;;
59828;SDS011;45708;51.848;107.620;2023-03-23T06:42:08;2.77;;;1.53;;
59828;SDS011;45708;51.848;107.620;2023-03-23T06:47:10;3.17;;;1.43;;
59828;SDS011;45708;51.848;107.620;2023-03-23T06:52:10;1.90;;;0.70;;
59828;SDS011;45708;51.848;107.620;2023-03-23T06:57:11;0.53;;;0.53;;
59828;SDS011;45708;51.848;107.620;2023-03-23T07:02:15;2.53;;;1.17;;
59828;SDS011;45708;51.848;107.620;2023-03-23T07:07:16;0.50;;;0.50;;
59828;SDS011;45708;51.848;107.620;2023-03-23T07:12:18;3.00;;;1.20;;
59828;SDS011;45708;51.848;107.620;2023-03-23T07:17:19;3.70;;;1.70;;
59828;SDS011;45708;51.848;107.620;2023-03-23T07:22:22;0.70;;;0.70;;
59828;SDS011;45708;51.848;107.620;2023-03-23T07:27:23;2.47;;;1.53;;
59828;SDS011;45708;51.848;107.620;2023-03-23T07:32:24;0.77;;;0.60;;
59828;SDS011;45708;51.848;107.620;2023-03-23T07:37:28;1.77;;;1.23;;
59828;SDS011;45708;51.848;107.620;2023-03-23T07:42:30;4.37;;;3.83;;
59828;SDS011;45708;51.848;107.620;2023-03-23T07:47:31;3.00;;;2.23;;
59828;SDS011;45708;51.848;107.620;2023-03-23T07:52:33;4.23;;;1.27;;
59828;SDS011;45708;51.848;107.620;2023-03-23T07:57:34;2.07;;;1.37;;
59828;SDS011;45708;51.848;107.620;2023-03-23T08:02:35;7.30;;;3.60;;
59828;SDS011;45708;51.848;107.620;2023-03-23T08:07:37;3.60;;;1.77;;
59828;SDS011;45708;51.848;107.620;2023-03-23T08:12:38;2.33;;;1.77;;
59828;SDS011;45708;51.848;107.620;2023-03-23T08:17:40;2.37;;;1.43;;
59828;SDS011;45708;51.848;107.620;2023-03-23T08:22:43;7.23;;;3.90;;
59828;SDS011;45708;51.848;107.620;2023-03-23T08:27:45;7.90;;;2.43;;
59828;SDS011;45708;51.848;107.620;2023-03-23T08:32:47;1.90;;;0.57;;
59828;SDS011;45708;51.848;107.620;2023-03-23T08:37:49;0.67;;;0.50;;
59828;SDS011;45708;51.848;107.620;2023-03-23T08:42:51;2.73;;;1.40;;
59828;SDS011;45708;51.848;107.620;2023-03-23T08:47:53;8.53;;;3.20;;
59828;SDS011;45708;51.848;107.620;2023-03-23T08:52:54;6.20;;;2.77;;
59828;SDS011;45708;51.848;107.620;2023-03-23T08:57:54;4.30;;;2.50;;
59828;SDS011;45708;51.848;107.620;2023-03-23T09:02:55;10.83;;;4.70;;
59828;SDS011;45708;51.848;107.620;2023-03-23T09:07:57;18.00;;;2.57;;
59828;SDS011;45708;51.848;107.620;2023-03-23T09:12:59;4.63;;;1.53;;
59828;SDS011;45708;51.848;107.620;2023-03-23T09:18:00;6.90;;;3.87;;
59828;SDS011;45708;51.848;107.620;2023-03-23T09:23:02;14.07;;;3.80;;
59828;SDS011;45708;51.848;107.620;2023-03-23T09:28:03;7.07;;;3.87;;
59828;SDS011;45708;51.848;107.620;2023-03-23T09:33:05;7.67;;;3.97;;
59828;SDS011;45708;51.848;107.620;2023-03-23T09:38:07;3.23;;;2.27;;
59828;SDS011;45708;51.848;107.620;2023-03-23T09:48:52;6.43;;;2.87;;
59828;SDS011;45708;51.848;107.620;2023-03-23T09:54:10;6.70;;;2.87;;
59828;SDS011;45708;51.848;107.620;2023-03-23T09:59:22;11.13;;;4.13;;
59828;SDS011;45708;51.848;107.620;2023-03-23T10:04:43;6.37;;;3.00;;
59828;SDS011;45708;51.848;107.620;2023-03-23T10:09:47;4.50;;;3.40;;
59828;SDS011;45708;51.848;107.620;2023-03-23T10:20:37;12.67;;;3.70;;
59828;SDS011;45708;51.848;107.620;2023-03-23T10:25:43;6.80;;;3.10;;
59828;SDS011;45708;51.848;107.620;2023-03-23T10:31:00;5.30;;;4.50;;
59828;SDS011;45708;51.848;107.620;2023-03-23T10:36:07;8.20;;;5.30;;
59828;SDS011;45708;51.848;107.620;2023-03-23T10:41:14;10.77;;;4.73;;
59828;SDS011;45708;51.848;107.620;2023-03-23T10:56:42;11.97;;;5.97;;
59828;SDS011;45708;51.848;107.620;2023-03-23T11:01:44;14.87;;;8.37;;
59828;SDS011;45708;51.848;107.620;2023-03-23T11:06:54;20.60;;;11.10;;
59828;SDS011;45708;51.848;107.620;2023-03-23T11:12:00;42.17;;;13.50;;
59828;SDS011;45708;51.848;107.620;2023-03-23T11:17:01;22.00;;;9.50;;
59828;SDS011;45708;51.848;107.620;2023-03-23T11:27:18;27.10;;;11.13;;
59828;SDS011;45708;51.848;107.620;2023-03-23T11:32:22;24.77;;;9.40;;
59828;SDS011;45708;51.848;107.620;2023-03-23T11:42:43;16.17;;;6.47;;
59828;SDS011;45708;51.848;107.620;2023-03-23T11:53:40;12.73;;;6.40;;
59828;SDS011;45708;51.848;107.620;2023-03-23T11:58:42;17.27;;;8.47;;
59828;SDS011;45708;51.848;107.620;2023-03-23T12:03:53;26.83;;;10.40;;
59828;SDS011;45708;51.848;107.620;2023-03-23T12:14:27;50.37;;;22.53;;
59828;SDS011;45708;51.848;107.620;2023-03-23T12:45:59;37.97;;;15.37;;
59828;SDS011;45708;51.848;107.620;2023-03-23T12:51:12;36.23;;;16.33;;
59828;SDS011;45708;51.848;107.620;2023-03-23T12:56:38;26.07;;;11.77;;
59828;SDS011;45708;51.848;107.620;2023-03-23T13:01:46;57.55;;;24.40;;
59828;SDS011;45708;51.848;107.620;2023-03-23T13:06:52;52.50;;;21.93;;
59828;SDS011;45708;51.848;107.620;2023-03-23T13:11:53;49.30;;;19.20;;
59828;SDS011;45708;51.848;107.620;2023-03-23T13:22:34;15.27;;;7.40;;
59828;SDS011;45708;51.848;107.620;2023-03-23T13:27:44;30.07;;;12.53;;
59828;SDS011;45708;51.848;107.620;2023-03-23T13:33:03;21.73;;;9.87;;
59828;SDS011;45708;51.848;107.620;2023-03-23T13:43:45;19.47;;;9.13;;
59828;SDS011;45708;51.848;107.620;2023-03-23T13:48:50;29.07;;;11.17;;
59828;SDS011;45708;51.848;107.620;2023-03-23T13:54:31;30.23;;;14.90;;
59828;SDS011;45708;51.848;107.620;2023-03-23T13:59:48;28.90;;;9.70;;
59828;SDS011;45708;51.848;107.620;2023-03-23T14:04:55;23.27;;;10.73;;
59828;SDS011;45708;51.848;107.620;2023-03-23T14:09:57;29.87;;;10.13;;
59828;SDS011;45708;51.848;107.620;2023-03-23T14:15:05;54.25;;;18.02;;
59828;SDS011;45708;51.848;107.620;2023-03-23T14:20:26;43.00;;;15.40;;
59828;SDS011;45708;51.848;107.620;2023-03-23T14:25:31;38.73;;;16.57;;
59828;SDS011;45708;51.848;107.620;2023-03-23T14:30:35;40.67;;;21.60;;
59828;SDS011;45708;51.848;107.620;2023-03-23T14:35:37;42.00;;;21.43;;
59828;SDS011;45708;51.848;107.620;2023-03-23T14:40:41;31.63;;;12.13;;
59828;SDS011;45708;51.848;107.620;2023-03-23T14:45:42;30.63;;;9.27;;
59828;SDS011;45708;51.848;107.620;2023-03-23T14:55:59;23.37;;;10.30;;
59828;SDS011;45708;51.848;107.620;2023-03-23T15:01:06;46.97;;;15.10;;
59828;SDS011;45708;51.848;107.620;2023-03-23T15:06:13;31.70;;;13.27;;
59828;SDS011;45708;51.848;107.620;2023-03-23T15:16:22;23.70;;;10.30;;
59828;SDS011;45708;51.848;107.620;2023-03-23T15:21:29;29.40;;;18.42;;
59828;SDS011;45708;51.848;107.620;2023-03-23T15:26:40;27.38;;;11.18;;
59828;SDS011;45708;51.848;107.620;2023-03-23T15:31:46;47.92;;;14.02;;
59828;SDS011;45708;51.848;107.620;2023-03-23T15:36:59;10.07;;;4.97;;
59828;SDS011;45708;51.848;107.620;2023-03-23T15:42:04;40.90;;;11.83;;
59828;SDS011;45708;51.848;107.620;2023-03-23T15:47:15;10.47;;;4.13;;
59828;SDS011;45708;51.848;107.620;2023-03-23T15:52:17;29.77;;;8.27;;
59828;SDS011;45708;51.848;107.620;2023-03-23T15:57:18;20.47;;;8.77;;
59828;SDS011;45708;51.848;107.620;2023-03-23T16:02:20;26.20;;;11.20;;
59828;SDS011;45708;51.848;107.620;2023-03-23T16:07:28;31.53;;;10.57;;
59828;SDS011;45708;51.848;107.620;2023-03-23T16:12:29;23.90;;;10.03;;
59828;SDS011;45708;51.848;107.620;2023-03-23T16:17:30;31.87;;;14.30;;
59828;SDS011;45708;51.848;107.620;2023-03-23T16:22:31;35.60;;;14.10;;
59828;SDS011;45708;51.848;107.620;2023-03-23T16:27:32;55.50;;;18.37;;
59828;SDS011;45708;51.848;107.620;2023-03-23T16:32:32;56.30;;;19.07;;
59828;SDS011;45708;51.848;107.620;2023-03-23T16:37:33;29.17;;;12.33;;
59828;SDS011;45708;51.848;107.620;2023-03-23T16:42:35;45.70;;;17.17;;
59828;SDS011;45708;51.848;107.620;2023-03-23T16:47:36;37.10;;;15.67;;
59828;SDS011;45708;51.848;107.620;2023-03-23T16:52:39;38.23;;;13.70;;
59828;SDS011;45708;51.848;107.620;2023-03-23T16:57:41;26.60;;;11.20;;
59828;SDS011;45708;51.848;107.620;2023-03-23T17:02:42;9.43;;;4.67;;
59828;SDS011;45708;51.848;107.620;2023-03-23T17:07:44;22.60;;;9.20;;
59828;SDS011;45708;51.848;107.620;2023-03-23T17:12:47;19.33;;;8.30;;
59828;SDS011;45708;51.848;107.620;2023-03-23T17:17:48;37.10;;;9.57;;
59828;SDS011;45708;51.848;107.620;2023-03-23T17:22:49;20.50;;;6.43;;
59828;SDS011;45708;51.848;107.620;2023-03-23T17:27:50;8.57;;;5.73;;
59828;SDS011;45708;51.848;107.620;2023-03-23T17:32:51;8.67;;;3.33;;
59828;SDS011;45708;51.848;107.620;2023-03-23T17:37:53;6.23;;;3.00;;
59828;SDS011;45708;51.848;107.620;2023-03-23T17:42:53;11.20;;;4.70;;
59828;SDS011;45708;51.848;107.620;2023-03-23T17:48:05;19.63;;;6.30;;
59828;SDS011;45708;51.848;107.620;2023-03-23T17:53:15;19.53;;;6.17;;
59828;SDS011;45708;51.848;107.620;2023-03-23T17:58:16;17.50;;;6.47;;
59828;SDS011;45708;51.848;107.620;2023-03-23T18:03:18;26.73;;;7.93;;
59828;SDS011;45708;51.848;107.620;2023-03-23T18:08:18;27.30;;;9.13;;
59828;SDS011;45708;51.848;107.620;2023-03-23T18:13:22;14.60;;;5.50;;
59828;SDS011;45708;51.848;107.620;2023-03-23T18:18:23;20.47;;;8.77;;
59828;SDS011;45708;51.848;107.620;2023-03-23T18:23:26;17.13;;;8.57;;
59828;SDS011;45708;51.848;107.620;2023-03-23T18:28:27;13.73;;;8.27;;
59828;SDS011;45708;51.848;107.620;2023-03-23T18:33:29;11.57;;;6.03;;
59828;SDS011;45708;51.848;107.620;2023-03-23T18:38:30;32.47;;;11.50;;
59828;SDS011;45708;51.848;107.620;2023-03-23T18:43:32;23.10;;;7.80;;
59828;SDS011;45708;51.848;107.620;2023-03-23T18:48:33;12.03;;;4.93;;
59828;SDS011;45708;51.848;107.620;2023-03-23T18:53:34;18.83;;;5.10;;
59828;SDS011;45708;51.848;107.620;2023-03-23T18:58:35;17.57;;;7.07;;
59828;SDS011;45708;51.848;107.620;2023-03-23T19:03:36;7.57;;;3.77;;
59828;SDS011;45708;51.848;107.620;2023-03-23T19:08:38;20.77;;;8.33;;
59828;SDS011;45708;51.848;107.620;2023-03-23T19:13:38;27.57;;;12.33;;
59828;SDS011;45708;51.848;107.620;2023-03-23T19:18:39;26.47;;;6.10;;
59828;SDS011;45708;51.848;107.620;2023-03-23T19:23:41;16.83;;;7.30;;
59828;SDS011;45708;51.848;107.620;2023-03-23T19:28:42;19.30;;;7.67;;
59828;SDS011;45708;51.848;107.620;2023-03-23T19:33:43;2.63;;;2.40;;
59828;SDS011;45708;51.848;107.620;2023-03-23T19:38:43;6.57;;;4.97;;
59828;SDS011;45708;51.848;107.620;2023-03-23T19:43:45;2.67;;;2.50;;
59828;SDS011;45708;51.848;107.620;2023-03-23T19:48:46;11.97;;;4.80;;
59828;SDS011;45708;51.848;107.620;2023-03-23T19:53:48;15.13;;;9.77;;
59828;SDS011;45708;51.848;107.620;2023-03-23T19:58:50;16.33;;;7.93;;
59828;SDS011;45708;51.848;107.620;2023-03-23T20:03:51;7.20;;;4.53;;
59828;SDS011;45708;51.848;107.620;2023-03-23T20:08:52;7.77;;;4.97;;
59828;SDS011;45708;51.848;107.620;2023-03-23T20:13:53;14.83;;;6.27;;
59828;SDS011;45708;51.848;107.620;2023-03-23T20:18:54;10.60;;;5.77;;
59828;SDS011;45708;51.848;107.620;2023-03-23T20:23:56;11.40;;;6.47;;
59828;SDS011;45708;51.848;107.620;2023-03-23T20:28:58;8.10;;;3.47;;
59828;SDS011;45708;51.848;107.620;2023-03-23T20:34:01;10.00;;;3.53;;
59828;SDS011;45708;51.848;107.620;2023-03-23T20:39:05;11.53;;;6.20;;
59828;SDS011;45708;51.848;107.620;2023-03-23T20:44:09;9.20;;;4.90;;
59828;SDS011;45708;51.848;107.620;2023-03-23T20:49:11;9.13;;;6.17;;
59828;SDS011;45708;51.848;107.620;2023-03-23T20:54:13;1.67;;;1.67;;
59828;SDS011;45708;51.848;107.620;2023-03-23T20:59:14;4.67;;;4.30;;
59828;SDS011;45708;51.848;107.620;2023-03-23T21:04:17;6.00;;;5.30;;
59828;SDS011;45708;51.848;107.620;2023-03-23T21:09:23;0.52;;;0.52;;
59828;SDS011;45708;51.848;107.620;2023-03-23T21:14:25;23.17;;;7.50;;
59828;SDS011;45708;51.848;107.620;2023-03-23T21:19:27;12.30;;;4.50;;
59828;SDS011;45708;51.848;107.620;2023-03-23T21:24:29;49.67;;;21.17;;
59828;SDS011;45708;51.848;107.620;2023-03-23T21:29:31;24.93;;;9.13;;
59828;SDS011;45708;51.848;107.620;2023-03-23T21:34:32;17.97;;;8.30;;
59828;SDS011;45708;51.848;107.620;2023-03-23T21:39:36;30.47;;;9.60;;
59828;SDS011;45708;51.848;107.620;2023-03-23T21:44:37;18.00;;;7.27;;
59828;SDS011;45708;51.848;107.620;2023-03-23T21:49:38;10.37;;;4.37;;
59828;SDS011;45708;51.848;107.620;2023-03-23T21:54:39;13.77;;;6.73;;
59828;SDS011;45708;51.848;107.620;2023-03-23T21:59:41;18.23;;;5.43;;
59828;SDS011;45708;51.848;107.620;2023-03-23T22:04:42;14.30;;;6.73;;
59828;SDS011;45708;51.848;107.620;2023-03-23T22:09:43;2.57;;;1.90;;
59828;SDS011;45708;51.848;107.620;2023-03-23T22:14:44;6.17;;;3.13;;
59828;SDS011;45708;51.848;107.620;2023-03-23T22:19:47;7.43;;;4.27;;
59828;SDS011;45708;51.848;107.620;2023-03-23T22:24:49;4.03;;;1.80;;
59828;SDS011;45708;51.848;107.620;2023-03-23T22:29:50;9.73;;;2.63;;
59828;SDS011;45708;51.848;107.620;2023-03-23T22:34:51;2.83;;;2.07;;
59828;SDS011;45708;51.848;107.620;2023-03-23T22:39:52;13.07;;;5.60;;
59828;SDS011;45708;51.848;107.620;2023-03-23T22:44:53;11.37;;;5.70;;
59828;SDS011;45708;51.848;107.620;2023-03-23T22:49:55;25.43;;;9.83;;
59828;SDS011;45708;51.848;107.620;2023-03-23T22:54:56;26.50;;;10.10;;
59828;SDS011;45708;51.848;107.620;2023-03-23T22:59:57;17.63;;;8.47;;
59828;SDS011;45708;51.848;107.620;2023-03-23T23:05:01;0.63;;;0.37;;
59828;SDS011;45708;51.848;107.620;2023-03-23T23:10:03;12.27;;;5.87;;
59828;SDS011;45708;51.848;107.620;2023-03-23T23:15:05;8.23;;;3.87;;
59828;SDS011;45708;51.848;107.620;2023-03-23T23:20:06;5.83;;;2.77;;
59828;SDS011;45708;51.848;107.620;2023-03-23T23:25:08;6.83;;;4.57;;
59828;SDS011;45708;51.848;107.620;2023-03-23T23:30:09;29.10;;;12.80;;
59828;SDS011;45708;51.848;107.620;2023-03-23T23:35:11;19.83;;;10.63;;
59828;SDS011;45708;51.848;107.620;2023-03-23T23:40:18;41.20;;;17.70;;
59828;SDS011;45708;51.848;107.620;2023-03-23T23:45:19;25.63;;;9.97;;
59828;SDS011;45708;51.848;107.620;2023-03-23T23:50:22;19.27;;;7.30;;
59828;SDS011;45708;51.848;107.620;2023-03-23T23:55:24;19.13;;;10.97;;
